Time;durP1;ratioP1;P1;durP2;ratioP2;P2;SDS_P1;SDS_P2;PMS_P1;PMS_P2;Temp;Humidity;BMP_temperature;BMP_pressure;BME280_temperature;BME280_humidity;BME280_pressure;Samples;Min_cycle;Max_cycle;Signal;HPM_P1;HPM_P2
2022/03/06 00:00:05;;;;;;;4.10;3.75;;;;;;;1.56;100.00;62157.91;5038092;28;20251;-74
2022/03/06 00:02:34;;;;;;;3.90;3.60;;;;;;;1.50;100.00;62149.75;5043856;28;20225;-74
2022/03/06 00:05:00;;;;;;;4.55;4.15;;;;;;;1.45;100.00;62146.63;5038087;28;20300;-74
2022/03/06 00:07:27;;;;;;;4.00;3.70;;;;;;;1.42;100.00;62143.56;5032683;28;20271;-73
2022/03/06 00:09:54;;;;;;;3.75;3.45;;;;;;;1.46;100.00;62145.16;5039009;28;20237;-74
2022/03/06 00:12:21;;;;;;;3.63;3.33;;;;;;;1.45;100.00;62151.66;5035478;28;20456;-73
2022/03/06 00:14:48;;;;;;;3.70;3.40;;;;;;;1.41;100.00;62145.03;5042318;28;20260;-73
2022/03/06 00:17:15;;;;;;;4.32;3.92;;;;;;;1.40;100.00;62142.00;5029395;28;20581;-73
2022/03/06 00:19:44;;;;;;;4.30;3.90;;;;;;;1.34;100.00;62140.88;5035930;28;20284;-74
2022/03/06 00:22:10;;;;;;;3.75;3.55;;;;;;;1.41;100.00;62145.56;5028910;28;20252;-73
2022/03/06 00:24:37;;;;;;;4.10;3.45;;;;;;;1.42;100.00;62146.56;5043970;28;20232;-74
2022/03/06 00:27:05;;;;;;;3.88;3.58;;;;;;;1.44;100.00;62146.13;5033754;28;20273;-74
2022/03/06 00:29:32;;;;;;;4.07;3.78;;;;;;;1.49;100.00;62151.25;5043407;28;20433;-73
2022/03/06 00:31:59;;;;;;;3.65;3.40;;;;;;;1.44;100.00;62146.13;5040875;28;20252;-75
2022/03/06 00:34:25;;;;;;;4.40;4.00;;;;;;;1.46;100.00;62148.19;5042506;28;20201;-74
2022/03/06 00:36:53;;;;;;;4.55;4.15;;;;;;;1.55;100.00;62161.91;5039991;28;20222;-73
2022/03/06 00:39:20;;;;;;;3.97;3.67;;;;;;;1.44;100.00;62153.13;5040873;28;20239;-73
2022/03/06 00:41:48;;;;;;;3.90;3.63;;;;;;;1.47;100.00;62149.19;5047187;28;20407;-73
2022/03/06 00:44:16;;;;;;;3.45;3.25;;;;;;;1.50;100.00;62154.28;5040229;28;20245;-73
2022/03/06 00:46:43;;;;;;;4.43;4.03;;;;;;;1.55;100.00;62159.94;5033007;28;20264;-73
2022/03/06 00:49:09;;;;;;;4.68;4.30;;;;;;;1.64;100.00;62171.16;5046599;28;20207;-73
2022/03/06 00:51:37;;;;;;;4.93;4.32;;;;;;;1.60;100.00;62167.56;5048021;28;20244;-73
2022/03/06 00:54:05;;;;;;;4.50;4.15;;;;;;;1.46;100.00;62148.19;5045633;28;20209;-73
2022/03/06 00:56:32;;;;;;;4.82;4.43;;;;;;;1.47;100.00;62148.69;5047814;28;20281;-73
2022/03/06 00:58:59;;;;;;;5.55;5.00;;;;;;;1.55;100.00;62159.41;5045546;28;20552;-73
2022/03/06 01:01:25;;;;;;;6.55;5.10;;;;;;;1.53;100.00;62154.84;5048470;28;20198;-73
2022/03/06 01:03:52;;;;;;;5.25;4.85;;;;;;;1.55;100.00;62154.91;5037257;28;20198;-73
2022/03/06 01:06:19;;;;;;;5.40;5.00;;;;;;;1.59;100.00;62166.03;5045523;28;20206;-73
2022/03/06 01:08:46;;;;;;;5.20;4.75;;;;;;;1.50;100.00;62156.78;5042721;28;20206;-73
2022/03/06 01:11:14;;;;;;;5.43;4.93;;;;;;;1.47;100.00;62151.69;5047540;28;20269;-73
2022/03/06 01:13:41;;;;;;;6.07;5.57;;;;;;;1.60;100.00;62162.03;5046516;28;20209;-74
2022/03/06 01:16:08;;;;;;;5.43;4.93;;;;;;;1.57;100.00;62159.44;5046372;28;20213;-73
2022/03/06 01:18:34;;;;;;;5.00;4.60;;;;;;;1.57;100.00;62164.47;5046010;28;20432;-73
2022/03/06 01:21:01;;;;;;;5.40;4.90;;;;;;;1.53;100.00;62160.38;5048492;28;20201;-72
2022/03/06 01:23:28;;;;;;;5.10;4.60;;;;;;;1.55;100.00;62156.91;5035250;28;20241;-73
2022/03/06 01:25:55;;;;;;;7.22;6.13;;;;;;;1.58;100.00;62165.00;5048348;28;20202;-73
2022/03/06 01:28:23;;;;;;;4.97;4.53;;;;;;;1.67;100.00;62169.72;5046575;28;20233;-73
2022/03/06 01:30:50;;;;;;;6.03;5.43;;;;;;;1.54;100.00;62158.88;5034843;28;20402;-73
2022/03/06 01:33:17;;;;;;;5.50;5.00;;;;;;;1.47;100.00;62151.22;5034573;28;20264;-72
2022/03/06 01:35:44;;;;;;;5.80;5.22;;;;;;;1.50;100.00;62156.78;5046826;28;20491;-72
2022/03/06 01:38:11;;;;;;;5.43;4.97;;;;;;;1.54;100.00;62158.38;5045979;28;20456;-73
2022/03/06 01:40:38;;;;;;;6.75;6.10;;;;;;;1.60;100.00;62162.03;5034101;28;20257;-73
2022/03/06 01:43:05;;;;;;;5.28;4.75;;;;;;;1.67;100.00;62171.72;5032495;28;20218;-72
2022/03/06 01:45:33;;;;;;;5.57;5.05;;;;;;;1.70;100.00;62177.31;5026717;28;20203;-72
2022/03/06 01:48:03;;;;;;;5.43;4.85;;;;;;;1.56;100.00;62157.91;5043529;28;20543;-73
2022/03/06 01:50:32;;;;;;;6.72;5.53;;;;;;;1.57;100.00;62161.97;5044051;28;20533;-73
2022/03/06 01:53:01;;;;;;;5.90;5.38;;;;;;;1.51;100.00;62155.28;5044531;28;20222;-73
2022/03/06 01:55:29;;;;;;;8.15;6.00;;;;;;;1.51;100.00;62155.81;5046645;28;20537;-73
2022/03/06 01:57:57;;;;;;;7.18;6.47;;;;;;;1.51;100.00;62150.28;5044919;28;20294;-73
2022/03/06 02:00:27;;;;;;;7.45;6.20;;;;;;;1.52;100.00;62158.84;5038504;28;20226;-73
2022/03/06 02:02:55;;;;;;;6.50;5.88;;;;;;;1.59;100.00;62161.00;5026343;28;20287;-73
2022/03/06 02:05:22;;;;;;;7.57;6.78;;;;;;;1.60;100.00;62167.06;5027134;28;20209;-73
2022/03/06 02:07:49;;;;;;;7.15;6.25;;;;;;;1.64;100.00;62166.13;5037485;28;20248;-73
2022/03/06 02:10:17;;;;;;;6.05;5.53;;;;;;;1.57;100.00;62156.44;5043966;28;20202;-72
2022/03/06 02:12:44;;;;;;;7.45;6.38;;;;;;;1.52;100.00;62156.84;5045361;28;20226;-72
2022/03/06 02:15:13;;;;;;;7.07;6.38;;;;;;;1.54;100.00;62160.88;5043594;28;20232;-74
2022/03/06 02:17:40;;;;;;;7.13;6.38;;;;;;;1.60;100.00;62162.53;5040877;28;20226;-72
2022/03/06 02:20:11;;;;;;;7.10;6.20;;;;;;;1.72;100.00;62179.88;5049602;28;20221;-73
2022/03/06 02:22:41;;;;;;;7.10;6.40;;;;;;;1.60;100.00;62165.06;5053463;28;20283;-73
2022/03/06 02:25:10;;;;;;;9.10;7.03;;;;;;;1.57;100.00;62156.94;5045928;28;20217;-73
2022/03/06 02:27:37;;;;;;;6.90;6.20;;;;;;;1.60;100.00;62162.03;5037021;28;20238;-72
2022/03/06 02:30:06;;;;;;;6.50;5.75;;;;;;;1.52;100.00;62156.34;5026350;28;20211;-71
2022/03/06 02:32:34;;;;;;;7.68;6.38;;;;;;;1.54;100.00;62158.88;5035912;28;20230;-74
2022/03/06 02:35:01;;;;;;;6.72;5.65;;;;;;;1.65;100.00;62162.66;5030384;28;20480;-72
2022/03/06 02:37:28;;;;;;;6.95;5.22;;;;;;;1.72;100.00;62174.88;5043711;28;20340;-73
2022/03/06 02:39:56;;;;;;;7.50;6.43;;;;;;;1.59;100.00;62166.03;5034598;28;20537;-73
2022/03/06 02:42:24;;;;;;;6.45;5.82;;;;;;;1.55;100.00;62159.94;5043460;28;20530;-73
2022/03/06 02:44:51;;;;;;;6.00;5.40;;;;;;;1.54;100.00;62158.88;5030574;28;20202;-73
2022/03/06 02:47:18;;;;;;;6.40;5.90;;;;;;;1.54;100.00;62160.88;5044207;28;20320;-73
2022/03/06 02:49:45;;;;;;;6.13;5.38;;;;;;;1.64;100.00;62166.13;5029470;28;20203;-73
2022/03/06 02:52:12;;;;;;;5.88;5.38;;;;;;;1.69;100.00;62171.78;5026523;28;20218;-73
2022/03/06 02:54:39;;;;;;;5.93;5.43;;;;;;;1.64;100.00;62171.16;5035779;28;20205;-73
2022/03/06 02:57:08;;;;;;;5.10;4.68;;;;;;;1.42;100.00;62146.06;5044931;28;20234;-74
2022/03/06 02:59:35;;;;;;;5.57;5.07;;;;;;;1.42;100.00;62149.09;5044283;28;20252;-73
2022/03/06 03:02:02;;;;;;;5.35;4.90;;;;;;;1.43;100.00;62145.09;5043476;28;20218;-74
2022/03/06 03:04:29;;;;;;;6.38;5.78;;;;;;;1.38;100.00;62144.47;5042055;28;20268;-73
2022/03/06 03:06:56;;;;;;;5.47;4.97;;;;;;;1.46;100.00;62148.19;5044799;28;20218;-73
2022/03/06 03:09:22;;;;;;;5.55;4.55;;;;;;;1.44;100.00;62148.13;5043875;28;20495;-73
2022/03/06 03:11:51;;;;;;;4.97;4.57;;;;;;;1.36;100.00;62137.91;5041845;28;20229;-74
2022/03/06 03:14:20;;;;;;;5.82;5.32;;;;;;;1.42;100.00;62143.56;5041894;28;20403;-73
2022/03/06 03:16:46;;;;;;;4.78;4.38;;;;;;;1.51;100.00;62157.81;5043896;28;20222;-73
2022/03/06 03:19:14;;;;;;;4.65;4.25;;;;;;;1.37;100.00;62140.94;5043665;28;20198;-73
2022/03/06 03:21:42;;;;;;;5.28;4.82;;;;;;;1.49;100.00;62150.72;5043717;28;20229;-73
2022/03/06 03:24:09;;;;;;;4.78;4.38;;;;;;;1.48;100.00;62152.22;5030457;28;20193;-73
2022/03/06 03:26:36;;;;;;;5.10;4.70;;;;;;;1.42;100.00;62143.56;5044684;28;20221;-73
2022/03/06 03:29:04;;;;;;;4.80;4.40;;;;;;;1.38;100.00;62142.47;5043304;28;20198;-74
2022/03/06 03:31:32;;;;;;;4.53;4.18;;;;;;;1.38;100.00;62139.97;5043132;28;20213;-76
2022/03/06 03:33:59;;;;;;;3.97;3.67;;;;;;;1.41;100.00;62142.53;5037658;28;20403;-74
2022/03/06 03:36:25;;;;;;;3.97;3.67;;;;;;;1.44;100.00;62153.13;5024391;28;20233;-74
2022/03/06 03:38:52;;;;;;;3.83;3.63;;;;;;;1.27;100.00;62130.66;5034987;28;20270;-74
2022/03/06 03:41:19;;;;;;;3.50;3.30;;;;;;;1.33;100.00;62139.34;5043950;28;20233;-74
2022/03/06 03:43:46;;;;;;;3.80;3.53;;;;;;;1.28;100.00;62129.19;5042055;28;20503;-73
2022/03/06 03:46:12;;;;;;;3.47;3.17;;;;;;;1.30;100.00;62136.25;5027289;28;20202;-73
2022/03/06 03:48:40;;;;;;;3.67;3.40;;;;;;;1.34;100.00;62137.84;5031385;28;20248;-73
2022/03/06 03:51:07;;;;;;;3.40;3.13;;;;;;;1.22;100.00;62123.03;5044107;28;20190;-74
2022/03/06 03:53:34;;;;;;;3.47;3.17;;;;;;;1.27;100.00;62128.16;5033090;28;20717;-74
2022/03/06 03:56:01;;;;;;;3.58;3.38;;;;;;;1.24;100.00;62127.59;5028984;28;20516;-73
2022/03/06 03:58:28;;;;;;;3.60;3.33;;;;;;;1.26;100.00;62134.66;5036128;28;20252;-73
2022/03/06 04:00:54;;;;;;;2.88;2.67;;;;;;;1.14;100.00;62118.34;5043637;28;20473;-74
2022/03/06 04:03:21;;;;;;;3.33;3.13;;;;;;;1.12;100.00;62113.28;5043124;28;20530;-74
2022/03/06 04:05:50;;;;;;;3.45;3.15;;;;;;;1.08;100.00;62114.72;5027695;28;20436;-73
2022/03/06 04:08:17;;;;;;;3.03;2.83;;;;;;;1.03;100.00;62106.56;5042576;28;20222;-74
2022/03/06 04:10:44;;;;;;;2.13;2.03;;;;;;;1.12;100.00;62113.28;5043042;28;20209;-73
2022/03/06 04:13:11;;;;;;;3.13;2.92;;;;;;;1.01;100.00;62104.50;5040031;28;20222;-73
2022/03/06 04:15:38;;;;;;;2.45;2.35;;;;;;;1.03;100.00;62106.56;5027816;28;20440;-72
2022/03/06 04:18:05;;;;;;;3.22;3.03;;;;;;;0.98;100.00;62096.44;5035151;28;20477;-73
2022/03/06 04:20:32;;;;;;;11.48;3.17;;;;;;;1.04;100.00;62107.59;5023669;28;20292;-73
2022/03/06 04:23:00;;;;;;;2.78;2.67;;;;;;;1.03;100.00;62112.09;5024813;28;20531;-73
2022/03/06 04:25:27;;;;;;;3.30;3.00;;;;;;;1.06;100.00;62112.66;5038548;28;20491;-73
2022/03/06 04:27:54;;;;;;;3.50;3.20;;;;;;;1.01;100.00;62105.03;5043842;28;20225;-72
2022/03/06 04:30:21;;;;;;;3.17;2.97;;;;;;;0.94;100.00;62094.81;5043635;28;20503;-73
2022/03/06 04:32:48;;;;;;;3.10;2.90;;;;;;;1.16;100.00;62122.91;5038147;28;20234;-73
2022/03/06 04:35:14;;;;;;;3.20;3.00;;;;;;;1.11;100.00;62114.78;5026817;28;20199;-73
2022/03/06 04:37:41;;;;;;;3.00;2.80;;;;;;;1.06;100.00;62112.16;5033970;28;20225;-73
2022/03/06 04:40:11;;;;;;;3.38;2.97;;;;;;;1.10;100.00;62113.75;5045863;28;20236;-72
2022/03/06 04:42:38;;;;;;;2.67;2.58;;;;;;;1.04;100.00;62107.59;5029040;28;20476;-72
2022/03/06 04:45:06;;;;;;;2.88;2.67;;;;;;;1.08;100.00;62114.72;5036541;28;20206;-73
2022/03/06 04:47:33;;;;;;;2.75;2.50;;;;;;;1.23;100.00;62127.06;5023741;28;20241;-72
2022/03/06 04:50:00;;;;;;;2.83;2.63;;;;;;;1.08;100.00;62111.69;5025085;28;20225;-73
2022/03/06 04:52:26;;;;;;;2.65;2.45;;;;;;;1.18;100.00;62119.97;5030580;28;20530;-72
2022/03/06 04:54:53;;;;;;;2.20;2.10;;;;;;;1.14;100.00;62115.84;5042122;28;20494;-71
2022/03/06 04:57:22;;;;;;;2.47;2.38;;;;;;;1.06;100.00;62112.16;5043702;28;20225;-73
2022/03/06 04:59:49;;;;;;;2.28;2.17;;;;;;;1.04;100.00;62108.09;5028142;28;20535;-73
2022/03/06 05:02:15;;;;;;;2.35;2.22;;;;;;;0.91;100.00;62097.28;5036836;28;20217;-74
2022/03/06 05:04:42;;;;;;;2.13;2.03;;;;;;;0.91;100.00;62094.78;5031656;28;20210;-73
2022/03/06 05:07:09;;;;;;;2.58;2.38;;;;;;;0.63;100.00;62063.56;5039103;28;20602;-73
2022/03/06 05:09:36;;;;;;;2.30;2.20;;;;;;;1.01;100.00;62104.50;5037005;28;20194;-72
2022/03/06 05:12:03;;;;;;;2.00;1.90;;;;;;;0.91;100.00;62089.25;5042614;28;20230;-74
2022/03/06 05:14:32;;;;;;;1.77;1.67;;;;;;;0.79;100.00;62084.97;5037173;28;20529;-72
2022/03/06 05:16:59;;;;;;;2.03;1.92;;;;;;;0.94;100.00;62097.34;5032752;28;20222;-73
2022/03/06 05:19:25;;;;;;;1.90;1.80;;;;;;;0.83;100.00;62086.56;5044464;28;20382;-72
2022/03/06 05:21:52;;;;;;;2.72;2.35;;;;;;;0.89;100.00;62092.72;5046199;28;20238;-73
2022/03/06 05:24:20;;;;;;;2.17;2.08;;;;;;;0.76;100.00;62076.88;5047996;28;20247;-72
2022/03/06 05:26:46;;;;;;;2.30;2.10;;;;;;;0.79;100.00;62076.94;5039018;28;20463;-74
2022/03/06 05:29:13;;;;;;;3.42;2.20;;;;;;;0.96;100.00;62099.38;5048432;28;20541;-73
2022/03/06 05:31:42;;;;;;;2.78;2.58;;;;;;;0.81;100.00;62086.50;5049787;28;20233;-73
2022/03/06 05:34:08;;;;;;;2.47;2.33;;;;;;;0.83;100.00;62086.56;5043244;28;20252;-73
2022/03/06 05:36:35;;;;;;;2.13;2.03;;;;;;;0.83;100.00;62081.03;5029642;28;20552;-73
2022/03/06 05:39:02;;;;;;;2.95;2.75;;;;;;;0.81;100.00;62079.00;5025881;28;20294;-72
2022/03/06 05:41:29;;;;;;;2.65;2.45;;;;;;;0.86;100.00;62089.63;5044385;28;20264;-73
2022/03/06 05:43:56;;;;;;;1.88;1.77;;;;;;;0.84;100.00;62089.59;5045146;28;20449;-73
2022/03/06 05:46:22;;;;;;;2.30;2.17;;;;;;;0.81;100.00;62079.50;5045958;28;20217;-73
2022/03/06 05:48:50;;;;;;;1.38;1.38;;;;;;;0.75;100.00;62075.84;5043937;28;20210;-73
2022/03/06 05:51:17;;;;;;;2.55;2.42;;;;;;;0.77;100.00;62080.41;5028489;28;20236;-74
2022/03/06 05:53:44;;;;;;;2.10;2.00;;;;;;;0.86;100.00;62086.63;5035225;28;20249;-73
2022/03/06 05:56:11;;;;;;;1.95;1.85;;;;;;;0.90;100.00;62091.22;5026358;28;20198;-73
2022/03/06 05:58:38;;;;;;;2.53;2.40;;;;;;;0.90;100.00;62093.75;5036576;28;20212;-73
2022/03/06 06:01:04;;;;;;;2.67;2.47;;;;;;;0.98;100.00;62101.94;5037288;28;20234;-73
2022/03/06 06:03:32;;;;;;;1.67;1.58;;;;;;;1.03;100.00;62104.56;5032083;28;20534;-74
2022/03/06 06:06:00;;;;;;;2.70;2.50;;;;;;;1.05;100.00;62106.13;5025833;28;20213;-73
2022/03/06 06:08:27;;;;;;;2.17;2.08;;;;;;;0.91;100.00;62089.25;5041031;28;20214;-73
2022/03/06 06:10:54;;;;;;;2.45;2.30;;;;;;;0.95;100.00;62096.38;5036978;28;20261;-74
2022/03/06 06:13:21;;;;;;;1.67;1.58;;;;;;;0.88;100.00;62091.69;5038900;28;20218;-74
2022/03/06 06:15:48;;;;;;;2.40;2.20;;;;;;;0.90;100.00;62093.22;5029836;28;20306;-74
2022/03/06 06:18:14;;;;;;;1.50;1.40;;;;;;;1.02;100.00;62106.06;5043850;28;20244;-73
2022/03/06 06:20:41;;;;;;;4.03;3.60;;;;;;;0.98;100.00;62103.94;5028583;28;20542;-73
2022/03/06 06:23:09;;;;;;;2.00;1.90;;;;;;;1.11;100.00;62117.78;5026958;28;20223;-73
2022/03/06 06:25:36;;;;;;;1.80;1.70;;;;;;;1.00;100.00;62101.00;5043793;28;20260;-73
2022/03/06 06:28:03;;;;;;;2.47;2.28;;;;;;;1.01;100.00;62107.53;5028942;28;20222;-73
2022/03/06 06:30:30;;;;;;;1.65;1.55;;;;;;;1.04;100.00;62107.59;5035508;28;20252;-73
2022/03/06 06:32:57;;;;;;;1.52;1.52;;;;;;;1.04;100.00;62105.06;5044804;28;20265;-76
2022/03/06 06:35:23;;;;;;;2.03;1.92;;;;;;;1.00;100.00;62101.00;5042959;28;20201;-74
2022/03/06 06:37:50;;;;;;;2.05;1.95;;;;;;;1.01;100.00;62100.03;5028636;28;20222;-74
2022/03/06 06:40:18;;;;;;;1.52;1.42;;;;;;;0.91;100.00;62092.28;5044538;28;20238;-73
2022/03/06 06:42:45;;;;;;;1.55;1.45;;;;;;;0.98;100.00;62101.44;5038678;28;20241;-73
2022/03/06 06:45:12;;;;;;;1.48;1.45;;;;;;;1.04;100.00;62105.06;5044655;28;20201;-73
2022/03/06 06:47:40;;;;;;;2.45;2.30;;;;;;;0.96;100.00;62102.41;5039901;28;20268;-74
2022/03/06 06:50:08;;;;;;;1.70;1.60;;;;;;;0.85;100.00;62093.63;5049161;28;20217;-74
2022/03/06 06:52:35;;;;;;;1.60;1.50;;;;;;;0.95;100.00;62098.88;5042357;28;20218;-73
2022/03/06 06:55:02;;;;;;;2.63;2.42;;;;;;;1.04;100.00;62105.06;5044659;28;20277;-73
2022/03/06 06:57:30;;;;;;;1.80;1.70;;;;;;;1.05;100.00;62108.63;5033941;28;20226;-73
2022/03/06 06:59:57;;;;;;;1.65;1.20;;;;;;;1.08;100.00;62114.72;5025559;28;20206;-74
2022/03/06 07:02:24;;;;;;;1.30;1.30;;;;;;;1.14;100.00;62117.84;5036253;28;20276;-74
2022/03/06 07:04:51;;;;;;;1.70;1.60;;;;;;;1.18;100.00;62127.47;5032586;28;20203;-74
2022/03/06 07:07:19;;;;;;;1.77;1.67;;;;;;;1.09;100.00;62108.22;5025552;28;20219;-74
2022/03/06 07:09:45;;;;;;;1.63;1.52;;;;;;;1.17;100.00;62118.94;5035779;28;20201;-73
2022/03/06 07:12:12;;;;;;;1.58;1.50;;;;;;;1.04;100.00;62110.09;5040391;28;20244;-74
2022/03/06 07:14:40;;;;;;;3.13;1.92;;;;;;;1.07;100.00;62108.66;5036138;28;20207;-74
2022/03/06 07:17:07;;;;;;;2.30;2.20;;;;;;;1.09;100.00;62110.72;5036259;28;20313;-74
2022/03/06 07:19:34;;;;;;;2.70;2.50;;;;;;;1.21;100.00;62127.53;5034217;28;20455;-73
2022/03/06 07:22:01;;;;;;;1.90;1.80;;;;;;;1.15;100.00;62119.41;5034133;28;20238;-73
2022/03/06 07:24:28;;;;;;;2.15;2.05;;;;;;;1.14;100.00;62113.34;5033891;28;20412;-73
2022/03/06 07:26:55;;;;;;;2.10;2.00;;;;;;;1.16;100.00;62120.41;5036226;28;20226;-74
2022/03/06 07:29:22;;;;;;;2.40;2.20;;;;;;;1.29;100.00;62130.75;5036949;28;20210;-74
2022/03/06 07:31:50;;;;;;;1.80;1.70;;;;;;;1.27;100.00;62133.19;5039361;28;20218;-74
2022/03/06 07:34:17;;;;;;;1.25;1.25;;;;;;;1.23;100.00;62126.56;5029152;28;20249;-74
2022/03/06 07:36:44;;;;;;;1.52;1.52;;;;;;;1.29;100.00;62135.22;5031250;28;20551;-74
2022/03/06 07:39:11;;;;;;;1.88;1.30;;;;;;;1.16;100.00;62125.44;5035124;28;20244;-74
2022/03/06 07:41:37;;;;;;;2.10;1.58;;;;;;;1.29;100.00;62135.75;5034199;28;20246;-74
2022/03/06 07:44:05;;;;;;;1.17;1.10;;;;;;;1.28;100.00;62132.22;5036985;28;20205;-74
2022/03/06 07:46:32;;;;;;;1.13;1.13;;;;;;;1.27;100.00;62133.19;5035713;28;20225;-73
2022/03/06 07:49:00;;;;;;;1.10;1.10;;;;;;;1.33;100.00;62136.84;5034894;28;20221;-74
2022/03/06 07:51:27;;;;;;;1.58;1.48;;;;;;;1.26;100.00;62129.66;5034145;28;20227;-73
2022/03/06 07:53:53;;;;;;;1.63;1.52;;;;;;;1.35;100.00;62133.88;5038523;28;20194;-73
2022/03/06 07:56:20;;;;;;;1.80;1.70;;;;;;;1.42;100.00;62148.56;5035127;28;20206;-74
2022/03/06 07:58:47;;;;;;;1.48;1.30;;;;;;;1.41;100.00;62148.06;5034067;28;20261;-73
2022/03/06 08:01:14;;;;;;;1.00;1.00;;;;;;;1.34;100.00;62140.38;5035762;28;20288;-74
2022/03/06 08:03:41;;;;;;;0.90;0.90;;;;;;;1.32;100.00;62133.28;5036358;28;20194;-74
2022/03/06 08:06:09;;;;;;;1.40;1.33;;;;;;;1.11;100.00;62120.31;5039667;28;20222;-73
2022/03/06 08:08:36;;;;;;;1.35;1.35;;;;;;;1.27;100.00;62133.19;5035061;28;20261;-72
2022/03/06 08:11:03;;;;;;;1.70;1.60;;;;;;;1.32;100.00;62131.31;5032641;28;20214;-73
2022/03/06 08:13:30;;;;;;;1.73;1.63;;;;;;;1.19;100.00;62120.47;5036007;28;20218;-74
2022/03/06 08:15:57;;;;;;;2.20;2.10;;;;;;;1.19;100.00;62123.00;5036279;28;20553;-73
2022/03/06 08:18:24;;;;;;;1.83;1.73;;;;;;;1.34;100.00;62140.38;5032032;28;20453;-73
2022/03/06 08:20:50;;;;;;;1.60;1.50;;;;;;;1.35;100.00;62136.38;5035360;28;20271;-73
2022/03/06 08:23:18;;;;;;;1.63;1.60;;;;;;;1.36;100.00;62139.91;5033211;28;20249;-73
2022/03/06 08:25:45;;;;;;;1.40;1.38;;;;;;;1.27;100.00;62130.66;5033635;28;20554;-73
2022/03/06 08:28:12;;;;;;;1.67;1.58;;;;;;;1.36;100.00;62139.91;5035439;28;20225;-73
2022/03/06 08:30:39;;;;;;;1.65;1.60;;;;;;;1.29;100.00;62133.25;5030397;28;20237;-72
2022/03/06 08:33:06;;;;;;;1.70;1.60;;;;;;;1.13;100.00;62117.34;5033670;28;20264;-72
2022/03/06 08:35:33;;;;;;;1.52;1.50;;;;;;;1.13;100.00;62116.81;5031260;28;20510;-72
2022/03/06 08:38:00;;;;;;;1.88;1.67;;;;;;;1.28;100.00;62129.69;5031429;28;20242;-72
2022/03/06 08:40:28;;;;;;;1.80;1.70;;;;;;;1.34;100.00;62137.84;5032597;28;20190;-73
2022/03/06 08:42:55;;;;;;;1.98;1.88;;;;;;;1.21;100.00;62124.53;5034920;28;20281;-72
2022/03/06 08:45:21;;;;;;;1.88;1.77;;;;;;;1.24;100.00;62127.59;5039609;28;20194;-72
2022/03/06 08:47:48;;;;;;;2.28;2.17;;;;;;;1.27;100.00;62128.69;5038750;28;20233;-72
2022/03/06 08:50:15;;;;;;;2.25;2.15;;;;;;;1.31;100.00;62132.28;5042074;28;20254;-74
2022/03/06 08:52:42;;;;;;;1.90;1.80;;;;;;;1.49;100.00;62150.72;5040338;28;20324;-73
2022/03/06 08:55:10;;;;;;;2.13;2.03;;;;;;;1.52;100.00;62159.34;5035466;28;20194;-74
2022/03/06 08:57:38;;;;;;;1.85;1.75;;;;;;;1.55;100.00;62157.41;5040332;28;20222;-75
2022/03/06 09:00:08;;;;;;;1.73;1.63;;;;;;;1.80;100.00;62185.06;5044916;28;20202;-75
2022/03/06 09:02:35;;;;;;;1.73;1.63;;;;;;;1.66;100.00;62171.22;5038813;28;20233;-74
2022/03/06 09:05:02;;;;;;;1.95;1.85;;;;;;;2.03;100.00;62206.16;5045656;28;20197;-74
2022/03/06 09:07:29;;;;;;;2.00;1.90;;;;;;;2.08;100.00;62216.84;5026956;28;20230;-74
2022/03/06 09:09:55;;;;;;;2.22;2.13;;;;;;;2.36;100.00;62245.09;5038116;28;20394;-75
2022/03/06 09:12:26;;;;;;;1.70;1.60;;;;;;;2.26;100.00;62232.31;5035788;28;20249;-74
2022/03/06 09:14:54;;;;;;;1.85;1.75;;;;;;;2.21;100.00;62224.66;5046982;28;20438;-75
2022/03/06 09:17:21;;;;;;;1.60;1.50;;;;;;;2.42;100.00;62248.22;5044535;28;20252;-76
2022/03/06 09:19:48;;;;;;;1.40;1.40;;;;;;;2.60;100.00;62264.72;5044288;28;20228;-76
2022/03/06 09:22:15;;;;;;;2.60;2.40;;;;;;;2.56;100.00;62265.63;5046327;28;20241;-75
2022/03/06 09:24:42;;;;;;;1.75;1.65;;;;;;;2.48;100.00;62252.38;5028558;28;20202;-75
2022/03/06 09:27:09;;;;;;;1.00;1.00;;;;;;;2.41;100.00;62252.22;5030798;28;20229;-74
2022/03/06 09:29:36;;;;;;;1.30;1.30;;;;;;;2.47;100.00;62253.38;5035165;28;20257;-74
2022/03/06 09:32:04;;;;;;;1.52;1.42;;;;;;;2.21;100.00;62222.66;5027222;28;20272;-75
2022/03/06 09:34:31;;;;;;;1.92;1.83;;;;;;;2.43;100.00;62244.22;5042069;28;20487;-74
2022/03/06 09:36:58;;;;;;;1.85;1.75;;;;;;;2.37;100.00;62246.09;5043259;28;20530;-74
2022/03/06 09:39:25;;;;;;;1.98;1.88;;;;;;;2.38;100.00;62240.09;5043504;28;20205;-74
2022/03/06 09:41:55;;;;;;;2.00;1.90;;;;;;;2.15;100.00;62218.50;5043412;28;20230;-74
2022/03/06 09:44:26;;;;;;;1.67;1.60;;;;;;;2.09;100.00;62215.34;5046123;28;20291;-74
2022/03/06 09:46:56;;;;;;;1.90;1.70;;;;;;;2.14;100.00;62222.50;5043993;28;20431;-75
2022/03/06 09:49:24;;;;;;;2.33;2.22;;;;;;;2.21;100.00;62227.69;5040347;28;20261;-74
2022/03/06 09:51:52;;;;;;;2.72;2.53;;;;;;;2.15;100.00;62218.50;5040195;28;20290;-75
2022/03/06 09:54:19;;;;;;;2.70;2.50;;;;;;;2.01;100.00;62202.13;5040337;28;20208;-75
2022/03/06 09:56:46;;;;;;;2.30;2.20;;;;;;;1.95;100.00;62197.97;5034595;28;20226;-76
2022/03/06 09:59:13;;;;;;;2.70;2.50;;;;;;;1.89;100.00;62191.78;5038628;28;20217;-74
2022/03/06 10:01:40;;;;;;;2.40;2.20;;;;;;;2.07;100.00;62213.28;5045016;28;20245;-73
2022/03/06 10:04:26;;;;;;;3.00;2.80;;;;;;;2.18;100.00;62222.09;5045483;28;20244;-74
2022/03/06 10:07:04;;;;;;;3.13;2.92;;;;;;;2.20;100.00;62223.63;5035635;28;20218;-75
2022/03/06 10:09:33;;;;;;;3.05;2.85;;;;;;;2.14;100.00;62219.97;5043094;28;20194;-76
2022/03/06 10:12:00;;;;;;;3.03;2.83;;;;;;;2.01;100.00;62202.13;5045942;28;20295;-74
2022/03/06 10:14:38;;;;;;;3.33;3.08;;;;;;;1.99;100.00;62202.56;5041374;28;20217;-74
2022/03/06 10:17:15;;;;;;;4.60;3.70;;;;;;;1.73;100.00;62177.88;5038673;28;20230;-74
2022/03/06 10:19:58;;;;;;;4.40;3.90;;;;;;;1.85;100.00;62190.19;5045364;28;20248;-74
2022/03/06 10:22:28;;;;;;;3.70;3.40;;;;;;;1.99;100.00;62207.59;5044277;28;20225;-74
2022/03/06 10:24:57;;;;;;;3.67;3.38;;;;;;;2.11;100.00;62219.91;5025745;28;20245;-76
2022/03/06 10:27:43;;;;;;;3.83;3.63;;;;;;;2.18;100.00;62224.06;5042186;28;20222;-75
2022/03/06 10:30:26;;;;;;;4.20;3.83;;;;;;;2.19;100.00;62222.59;5045136;28;20268;-75
2022/03/06 10:32:54;;;;;;;3.75;3.47;;;;;;;2.19;100.00;62225.13;5026335;28;20215;-73
2022/03/06 10:35:26;;;;;;;3.72;3.45;;;;;;;2.25;100.00;62229.28;5042109;28;20392;-75
2022/03/06 10:37:53;;;;;;;3.40;3.10;;;;;;;2.29;100.00;62233.41;5043736;28;20218;-74
2022/03/06 10:40:32;;;;;;;3.67;3.38;;;;;;;2.09;100.00;62214.84;5043676;28;20214;-75
2022/03/06 10:42:59;;;;;;;3.30;3.03;;;;;;;2.10;100.00;62218.38;5041628;28;20229;-75
2022/03/06 10:45:26;;;;;;;4.00;3.63;;;;;;;2.18;100.00;62224.59;5044065;28;20245;-75
2022/03/06 10:47:53;;;;;;;5.20;4.70;;;;;;;2.17;100.00;62220.56;5045090;28;20522;-76
2022/03/06 10:50:25;;;;;;;3.13;2.92;;;;;;;2.10;100.00;62216.38;5041964;28;20264;-75
2022/03/06 10:52:54;;;;;;;3.45;3.25;;;;;;;2.29;100.00;62235.91;5044101;28;20268;-75
2022/03/06 10:55:33;;;;;;;3.42;3.22;;;;;;;2.53;100.00;62262.03;5044638;28;20494;-75
2022/03/06 10:58:00;;;;;;;4.13;3.83;;;;;;;2.87;100.00;62294.44;5042416;28;20225;-75
2022/03/06 11:00:29;;;;;;;3.33;3.13;;;;;;;3.30;100.00;62336.13;5040461;28;20202;-75
2022/03/06 11:02:57;;;;;;;2.70;2.60;;;;;;;3.41;100.00;62342.41;5044673;28;20301;-75
2022/03/06 11:05:27;;;;;;;2.90;2.70;;;;;;;3.45;100.00;62354.06;5045066;28;20198;-75
2022/03/06 11:07:55;;;;;;;2.95;2.75;;;;;;;3.37;100.00;62346.34;5038827;28;20299;-74
2022/03/06 11:10:22;;;;;;;2.30;2.10;;;;;;;3.23;100.00;62333.97;5043074;28;20202;-75
2022/03/06 11:12:50;;;;;;;3.33;3.13;;;;;;;3.14;100.00;62322.72;5032173;28;20257;-75
2022/03/06 11:15:18;;;;;;;2.58;2.38;;;;;;;2.97;100.00;62305.25;5028275;28;20198;-75
2022/03/06 11:17:46;;;;;;;2.60;2.40;;;;;;;2.89;100.00;62297.03;5040328;28;20313;-75
2022/03/06 11:20:13;;;;;;;3.72;2.72;;;;;;;2.88;100.00;62298.50;5045520;28;20229;-75
2022/03/06 11:22:49;;;;;;;2.30;2.20;;;;;;;2.92;100.00;62297.59;5047533;28;20543;-77
2022/03/06 11:25:21;;;;;;;3.28;2.97;;;;;;;2.91;100.00;62293.53;5047018;28;20194;-76
2022/03/06 11:28:00;;;;;;;3.40;3.10;;;;;;;2.71;100.00;62278.53;5031644;28;20219;-75
2022/03/06 11:30:27;;;;;;;2.88;2.67;;;;;;;2.65;100.00;62274.88;5038389;28;20215;-76
2022/03/06 11:33:03;;;;;;;2.13;2.03;;;;;;;2.36;100.00;62240.06;5025079;28;20231;-75
2022/03/06 11:35:33;;;;;;;1.70;1.60;;;;;;;2.23;100.00;62231.72;5033302;28;20205;-76